Time;durP1;ratioP1;P1;durP2;ratioP2;P2;SDS_P1;SDS_P2;PMS_P1;PMS_P2;Temp;Humidity;BMP_temperature;BMP_pressure;BME280_temperature;BME280_humidity;BME280_pressure;Samples;Min_cycle;Max_cycle;Signal;HPM_P1;HPM_P2
2021/01/15 00:00:59;;;;;;;1.50;1.10;;;21.30;28.80;;;;;;4994046;28;20388;-43
2021/01/15 00:03:24;;;;;;;2.05;1.13;;;21.30;28.80;;;;;;4995552;28;20049;-45
2021/01/15 00:05:50;;;;;;;2.15;1.17;;;21.30;28.90;;;;;;4994918;28;20077;-46
2021/01/15 00:08:16;;;;;;;1.05;0.70;;;21.30;28.90;;;;;;4995727;28;20104;-45
2021/01/15 00:10:42;;;;;;;1.33;0.93;;;21.30;29.00;;;;;;4995873;28;20392;-42
2021/01/15 00:13:08;;;;;;;1.10;1.00;;;21.30;29.40;;;;;;4995438;28;20057;-46
2021/01/15 00:15:34;;;;;;;1.40;0.85;;;21.20;28.90;;;;;;4993039;28;20191;-46
2021/01/15 00:17:59;;;;;;;1.10;0.90;;;21.20;28.90;;;;;;4995387;28;20053;-45
2021/01/15 00:20:25;;;;;;;3.45;0.90;;;21.20;29.10;;;;;;4995396;28;20037;-42
2021/01/15 00:22:51;;;;;;;1.50;1.10;;;21.20;29.20;;;;;;4994820;28;20019;-44
2021/01/15 00:25:17;;;;;;;1.08;0.93;;;21.20;29.20;;;;;;4995171;28;20121;-45
2021/01/15 00:27:44;;;;;;;1.50;1.00;;;21.20;29.10;;;;;;5000332;28;20022;-43
2021/01/15 00:30:10;;;;;;;1.33;1.00;;;21.20;29.10;;;;;;4995066;28;20022;-44
2021/01/15 00:32:39;;;;;;;1.75;1.08;;;21.20;29.00;;;;;;4994919;28;20106;-45
2021/01/15 00:35:07;;;;;;;1.85;1.10;;;21.20;29.00;;;;;;4992415;28;20446;-44
2021/01/15 00:37:33;;;;;;;1.23;0.80;;;21.20;29.00;;;;;;4994879;28;20054;-46
2021/01/15 00:39:59;;;;;;;1.40;1.02;;;21.10;28.90;;;;;;4993572;28;20570;-43
2021/01/15 00:42:25;;;;;;;0.98;0.88;;;21.10;28.90;;;;;;4994823;28;20122;-43
2021/01/15 00:44:55;;;;;;;1.42;1.00;;;21.10;28.80;;;;;;4993323;28;20134;-44
2021/01/15 00:47:22;;;;;;;1.17;0.85;;;21.10;28.80;;;;;;4993482;28;20109;-46
2021/01/15 00:49:49;;;;;;;1.55;0.95;;;21.10;28.80;;;;;;4985668;28;20492;-46
2021/01/15 00:52:18;;;;;;;1.30;0.90;;;21.10;28.80;;;;;;4995256;28;20057;-43
2021/01/15 00:54:44;;;;;;;1.40;0.90;;;21.10;28.80;;;;;;4995909;28;20038;-43
2021/01/15 00:57:09;;;;;;;1.73;0.90;;;21.00;28.70;;;;;;4995595;28;20093;-45
2021/01/15 00:59:35;;;;;;;1.30;0.90;;;21.00;28.70;;;;;;4994696;28;20402;-43
2021/01/15 01:02:16;;;;;;;1.55;1.00;;;21.00;28.70;;;;;;4978305;28;20041;-43
2021/01/15 01:04:42;;;;;;;1.42;1.05;;;21.00;28.70;;;;;;4994891;28;20038;-47
2021/01/15 01:07:08;;;;;;;1.10;0.80;;;21.00;28.80;;;;;;4995946;28;20084;-46
2021/01/15 01:09:34;;;;;;;1.38;1.13;;;21.00;28.80;;;;;;4995821;28;20429;-42
2021/01/15 01:12:00;;;;;;;4.47;1.83;;;21.00;28.80;;;;;;4995804;28;20050;-46
2021/01/15 01:14:26;;;;;;;1.27;1.00;;;21.00;28.80;;;;;;4995615;28;20122;-42
2021/01/15 01:16:52;;;;;;;1.33;0.90;;;21.00;28.80;;;;;;4994868;28;21425;-45
2021/01/15 01:19:17;;;;;;;1.50;1.30;;;20.90;28.70;;;;;;4995437;28;20034;-46
2021/01/15 01:21:43;;;;;;;1.35;1.05;;;20.90;28.70;;;;;;4996118;28;20092;-47
2021/01/15 01:24:09;;;;;;;1.67;0.98;;;20.90;28.80;;;;;;4995388;28;20056;-45
2021/01/15 01:26:35;;;;;;;1.30;1.00;;;20.90;28.80;;;;;;4995498;28;20037;-43
2021/01/15 01:29:01;;;;;;;1.45;1.00;;;20.90;28.80;;;;;;4994950;28;20022;-46
2021/01/15 01:31:26;;;;;;;1.10;0.90;;;20.90;28.80;;;;;;4995224;28;20113;-46
2021/01/15 01:33:52;;;;;;;2.00;1.20;;;20.90;28.80;;;;;;4995282;28;20453;-45
2021/01/15 01:36:18;;;;;;;1.20;0.98;;;20.90;28.80;;;;;;4994633;28;20030;-43
2021/01/15 01:38:44;;;;;;;0.93;0.73;;;20.90;28.80;;;;;;4994877;28;20027;-45
2021/01/15 01:41:10;;;;;;;2.05;1.30;;;20.80;28.80;;;;;;4995842;28;20442;-51
2021/01/15 01:43:36;;;;;;;1.08;0.98;;;20.80;28.90;;;;;;4994797;28;20441;-48
2021/01/15 01:46:07;;;;;;;1.73;1.13;;;20.90;28.90;;;;;;4995961;28;20038;-45
2021/01/15 01:48:33;;;;;;;1.65;1.08;;;20.80;28.90;;;;;;4994910;28;20492;-45
2021/01/15 01:51:01;;;;;;;1.20;1.10;;;20.80;28.80;;;;;;4978587;28;20038;-44
2021/01/15 01:53:32;;;;;;;3.92;1.10;;;20.80;29.00;;;;;;4977402;28;20468;-45
2021/01/15 01:56:03;;;;;;;1.10;1.00;;;20.80;29.10;;;;;;4994913;28;20039;-43
2021/01/15 01:58:31;;;;;;;1.08;0.85;;;20.80;29.00;;;;;;4994227;28;20338;-46
2021/01/15 02:01:00;;;;;;;1.60;1.00;;;20.80;29.50;;;;;;4993195;28;20349;-45
2021/01/15 02:03:26;;;;;;;1.52;1.00;;;20.80;29.00;;;;;;4994850;28;20062;-43
2021/01/15 02:05:52;;;;;;;1.65;1.00;;;20.80;29.00;;;;;;4994443;28;20026;-42
2021/01/15 02:08:18;;;;;;;1.27;1.17;;;20.80;29.00;;;;;;4994832;28;20061;-43
2021/01/15 02:11:06;;;;;;;1.70;1.15;;;20.70;29.00;;;;;;4995029;28;20445;-43
2021/01/15 02:13:40;;;;;;;2.60;1.10;;;20.70;29.10;;;;;;4954456;28;20042;-43
2021/01/15 02:16:09;;;;;;;1.15;1.00;;;20.70;29.10;;;;;;4994522;28;20056;-43
2021/01/15 02:18:44;;;;;;;1.75;1.40;;;20.70;29.10;;;;;;4994679;28;20054;-42
2021/01/15 02:21:34;;;;;;;1.60;1.17;;;20.70;29.10;;;;;;4980082;28;20070;-43
2021/01/15 02:24:35;;;;;;;2.70;0.90;;;20.70;29.00;;;;;;4994101;28;20511;-46
2021/01/15 02:27:18;;;;;;;1.20;0.90;;;20.70;29.10;;;;;;4973169;28;20046;-46
2021/01/15 02:30:05;;;;;;;1.00;0.90;;;20.70;29.10;;;;;;4996954;28;20030;-46
2021/01/15 02:32:49;;;;;;;1.65;1.00;;;20.70;29.10;;;;;;4998393;28;20374;-43
2021/01/15 02:35:52;;;;;;;1.70;1.02;;;20.60;29.50;;;;;;4998388;28;20038;-43
2021/01/15 02:38:47;;;;;;;1.35;1.05;;;20.70;29.10;;;;;;4998741;28;20053;-42
2021/01/15 02:41:17;;;;;;;;;;;20.70;29.10;;;;;;4998825;28;20073;-42
2021/01/15 02:43:48;;;;;;;1.55;1.00;;;20.60;29.10;;;;;;4998583;28;19917;-46
2021/01/15 02:46:16;;;;;;;1.52;1.13;;;20.60;29.10;;;;;;4997792;28;20108;-45
2021/01/15 02:48:47;;;;;;;1.30;1.10;;;20.60;29.10;;;;;;4998010;28;20034;-48
2021/01/15 02:51:13;;;;;;;1.10;1.00;;;20.60;29.10;;;;;;4984793;28;20069;-45
2021/01/15 02:53:40;;;;;;;1.02;0.82;;;20.60;29.10;;;;;;4997901;28;20480;-45
2021/01/15 02:56:06;;;;;;;1.45;1.20;;;20.60;29.20;;;;;;4998102;28;20426;-48
2021/01/15 02:58:31;;;;;;;1.63;1.23;;;20.60;29.20;;;;;;4998279;28;20121;-43
2021/01/15 03:00:57;;;;;;;1.67;1.05;;;20.60;29.30;;;;;;4997994;28;20509;-43
2021/01/15 03:03:31;;;;;;;1.25;0.85;;;20.60;29.20;;;;;;4997859;28;20044;-44
2021/01/15 03:06:06;;;;;;;1.23;1.00;;;20.60;29.10;;;;;;4998397;28;20037;-42
2021/01/15 03:08:33;;;;;;;1.10;0.80;;;20.50;29.10;;;;;;4997045;28;20420;-44
2021/01/15 03:11:04;;;;;;;1.08;0.90;;;20.60;29.10;;;;;;4998489;28;20038;-44
2021/01/15 03:13:31;;;;;;;1.30;1.15;;;20.60;29.10;;;;;;4997343;28;20429;-43
2021/01/15 03:16:01;;;;;;;1.73;1.05;;;20.50;29.10;;;;;;4998000;28;20042;-44
2021/01/15 03:18:29;;;;;;;1.10;1.00;;;20.50;29.10;;;;;;4997937;28;20335;-44
2021/01/15 03:20:55;;;;;;;2.28;1.05;;;20.50;29.10;;;;;;4997633;28;20408;-47
2021/01/15 03:23:21;;;;;;;1.60;1.02;;;20.50;29.10;;;;;;4997795;28;20050;-46
2021/01/15 03:25:46;;;;;;;1.17;1.00;;;20.50;29.10;;;;;;4996600;28;20117;-45
2021/01/15 03:28:12;;;;;;;1.70;1.08;;;20.50;29.20;;;;;;4997758;28;20049;-45
2021/01/15 03:30:38;;;;;;;1.75;1.20;;;20.50;29.20;;;;;;4996996;28;20500;-42
2021/01/15 03:33:05;;;;;;;1.40;1.10;;;20.50;29.10;;;;;;4998039;28;20113;-44
2021/01/15 03:35:32;;;;;;;1.50;1.00;;;20.50;29.10;;;;;;4996297;28;20042;-45
2021/01/15 03:38:09;;;;;;;1.77;1.00;;;20.50;29.20;;;;;;4997616;28;20319;-43
2021/01/15 03:40:35;;;;;;;1.92;1.13;;;20.50;29.20;;;;;;4996344;28;20109;-43
2021/01/15 03:43:13;;;;;;;1.30;0.95;;;20.50;29.20;;;;;;4997274;28;20339;-42
2021/01/15 03:45:40;;;;;;;1.85;1.20;;;20.50;29.20;;;;;;4996929;28;20033;-43
2021/01/15 03:48:07;;;;;;;1.35;1.08;;;20.40;29.20;;;;;;4997702;28;20034;-45
2021/01/15 03:50:33;;;;;;;1.33;1.10;;;20.40;29.20;;;;;;4997301;28;20093;-44
2021/01/15 03:52:59;;;;;;;1.00;0.90;;;20.40;29.20;;;;;;4997120;28;20030;-45
2021/01/15 03:55:24;;;;;;;1.20;1.00;;;20.40;29.20;;;;;;4984994;28;20038;-42
2021/01/15 03:57:50;;;;;;;1.63;1.15;;;20.40;29.20;;;;;;4997147;28;20452;-44
2021/01/15 04:00:16;;;;;;;2.17;1.10;;;20.40;29.30;;;;;;4996621;28;20038;-43
2021/01/15 04:02:42;;;;;;;1.55;0.90;;;20.40;29.30;;;;;;4995913;28;20038;-44
2021/01/15 04:05:13;;;;;;;1.42;0.95;;;20.40;29.30;;;;;;4997234;28;20098;-43
2021/01/15 04:07:42;;;;;;;1.48;1.10;;;20.40;29.30;;;;;;4997251;28;20100;-43
2021/01/15 04:10:11;;;;;;;1.70;1.10;;;20.40;29.30;;;;;;5000615;28;20030;-43
2021/01/15 04:12:41;;;;;;;1.50;1.13;;;20.40;29.30;;;;;;5004204;28;20038;-46
2021/01/15 04:15:11;;;;;;;1.65;1.08;;;20.40;29.40;;;;;;4979237;28;20069;-44
2021/01/15 04:17:38;;;;;;;1.00;0.90;;;20.40;29.40;;;;;;4996956;28;20034;-43
2021/01/15 04:20:08;;;;;;;1.30;1.00;;;20.40;29.40;;;;;;4996621;28;20027;-49
2021/01/15 04:22:36;;;;;;;1.35;1.05;;;20.40;29.40;;;;;;4985145;28;20121;-48
2021/01/15 04:25:03;;;;;;;1.40;1.30;;;20.40;29.50;;;;;;4997435;28;20122;-49
2021/01/15 04:27:30;;;;;;;1.42;1.08;;;20.30;29.40;;;;;;4996113;28;20434;-47
2021/01/15 04:29:56;;;;;;;1.20;1.00;;;20.40;29.50;;;;;;4996621;28;20089;-48
2021/01/15 04:32:23;;;;;;;1.13;1.00;;;20.30;29.50;;;;;;4995919;28;20406;-49
2021/01/15 04:34:49;;;;;;;1.52;1.10;;;20.30;29.60;;;;;;4997046;28;20046;-48
2021/01/15 04:37:15;;;;;;;1.80;1.10;;;20.30;29.50;;;;;;4996551;28;20033;-45
2021/01/15 04:39:41;;;;;;;1.23;0.98;;;20.30;29.50;;;;;;4996445;28;20129;-44
2021/01/15 04:42:08;;;;;;;1.40;1.10;;;20.30;29.50;;;;;;4978983;28;20026;-44
2021/01/15 04:44:35;;;;;;;2.05;1.30;;;20.30;29.50;;;;;;4996132;28;20049;-44
2021/01/15 04:47:04;;;;;;;1.50;1.00;;;20.30;29.50;;;;;;4996455;28;20041;-46
2021/01/15 04:49:30;;;;;;;1.35;1.10;;;20.30;29.50;;;;;;4978086;28;20041;-44
2021/01/15 04:52:00;;;;;;;1.33;1.10;;;20.30;29.50;;;;;;4995959;28;20026;-48
2021/01/15 04:54:36;;;;;;;1.30;1.02;;;20.30;29.50;;;;;;4996238;28;20042;-45
2021/01/15 04:57:04;;;;;;;1.75;1.15;;;20.30;29.50;;;;;;4977539;28;20041;-44
2021/01/15 04:59:33;;;;;;;1.75;1.10;;;20.30;29.50;;;;;;4996388;28;20034;-43
2021/01/15 05:02:07;;;;;;;1.85;1.00;;;20.20;29.50;;;;;;4995156;28;20034;-45
2021/01/15 05:04:33;;;;;;;1.75;1.10;;;20.30;29.50;;;;;;4996188;28;20026;-44
2021/01/15 05:07:04;;;;;;;1.23;1.02;;;20.20;29.50;;;;;;4995477;28;20085;-44
2021/01/15 05:09:37;;;;;;;1.27;1.10;;;20.20;29.50;;;;;;4995937;28;20041;-43
2021/01/15 05:12:06;;;;;;;1.48;1.23;;;20.20;29.50;;;;;;4995026;28;20476;-44
2021/01/15 05:14:34;;;;;;;1.42;0.90;;;20.20;29.60;;;;;;4995683;28;20147;-43
2021/01/15 05:17:03;;;;;;;1.35;0.95;;;20.20;29.60;;;;;;4995729;28;20038;-43
2021/01/15 05:19:29;;;;;;;1.05;0.90;;;20.20;29.60;;;;;;4996009;28;20342;-41
2021/01/15 05:21:55;;;;;;;1.40;1.05;;;20.20;29.60;;;;;;4995441;28;20373;-46
2021/01/15 05:24:21;;;;;;;1.50;0.93;;;20.20;29.60;;;;;;4995456;28;20196;-46
2021/01/15 05:26:47;;;;;;;1.50;1.20;;;20.20;29.70;;;;;;4995193;28;20500;-44
2021/01/15 05:29:15;;;;;;;1.60;1.35;;;20.20;29.60;;;;;;4995452;28;20027;-43
2021/01/15 05:31:48;;;;;;;1.88;1.30;;;20.20;29.70;;;;;;4995567;28;20188;-43
2021/01/15 05:34:13;;;;;;;1.20;1.00;;;20.20;29.70;;;;;;4994783;28;20049;-42
2021/01/15 05:36:39;;;;;;;1.60;1.10;;;20.20;29.70;;;;;;4995152;28;20042;-43
2021/01/15 05:39:06;;;;;;;1.52;1.20;;;20.10;29.70;;;;;;4995546;28;20026;-43
2021/01/15 05:41:33;;;;;;;2.03;1.20;;;20.10;29.70;;;;;;4995156;28;20034;-44
2021/01/15 05:44:00;;;;;;;1.42;1.17;;;20.10;29.70;;;;;;4995344;28;20038;-42
2021/01/15 05:46:26;;;;;;;1.48;1.23;;;20.10;29.70;;;;;;4989935;28;20108;-43
2021/01/15 05:48:53;;;;;;;1.98;1.10;;;20.10;29.70;;;;;;4995097;28;20419;-45
2021/01/15 05:51:35;;;;;;;1.30;1.05;;;20.20;29.70;;;;;;4995118;28;20030;-43
2021/01/15 05:54:03;;;;;;;1.40;1.10;;;20.10;29.80;;;;;;4994641;28;20038;-42
2021/01/15 05:56:36;;;;;;;1.52;1.02;;;20.10;29.70;;;;;;4995644;28;20113;-46
2021/01/15 05:59:22;;;;;;;2.17;1.20;;;20.10;29.80;;;;;;4992586;28;20030;-46
2021/01/15 06:02:05;;;;;;;1.83;0.95;;;20.10;29.80;;;;;;4987457;28;20038;-44
2021/01/15 06:04:31;;;;;;;1.40;1.00;;;20.10;29.80;;;;;;4994471;28;20035;-44
2021/01/15 06:07:13;;;;;;;1.38;1.20;;;20.10;29.90;;;;;;4993848;28;20113;-47
2021/01/15 06:09:43;;;;;;;1.65;1.23;;;20.10;29.80;;;;;;4994063;28;20034;-43
2021/01/15 06:12:11;;;;;;;1.08;0.98;;;20.10;29.80;;;;;;4994320;28;20125;-45
2021/01/15 06:14:49;;;;;;;1.35;1.05;;;20.10;29.80;;;;;;4995172;28;20358;-46
2021/01/15 06:17:17;;;;;;;1.35;1.20;;;20.10;29.90;;;;;;4994684;28;20030;-45
2021/01/15 06:19:50;;;;;;;1.55;1.13;;;20.10;29.90;;;;;;4995375;28;20045;-43
2021/01/15 06:22:26;;;;;;;1.92;1.23;;;20.10;29.90;;;;;;4993857;28;20097;-44
2021/01/15 06:25:10;;;;;;;1.27;1.17;;;20.00;29.90;;;;;;4993606;28;20061;-47
2021/01/15 06:27:41;;;;;;;1.65;1.20;;;20.10;29.90;;;;;;4980708;28;20038;-45
2021/01/15 06:30:17;;;;;;;1.67;1.02;;;20.00;29.90;;;;;;4994660;28;20103;-45
2021/01/15 06:32:45;;;;;;;1.65;1.10;;;20.00;29.90;;;;;;4994340;28;20026;-44
2021/01/15 06:35:30;;;;;;;1.33;1.10;;;20.00;29.90;;;;;;4994693;28;20065;-45
2021/01/15 06:38:16;;;;;;;1.45;1.35;;;20.00;29.90;;;;;;4990585;28;20045;-43
2021/01/15 06:40:44;;;;;;;2.03;1.30;;;20.00;29.90;;;;;;4975671;28;20050;-48
2021/01/15 06:43:12;;;;;;;1.85;1.25;;;20.00;29.90;;;;;;4994036;28;20076;-46
2021/01/15 06:45:40;;;;;;;2.00;1.00;;;20.00;29.90;;;;;;4993689;28;20053;-43
2021/01/15 06:48:10;;;;;;;1.83;1.27;;;20.00;29.90;;;;;;4994799;28;20026;-44
2021/01/15 06:50:38;;;;;;;1.48;1.20;;;20.00;30.50;;;;;;4993474;28;20035;-43
2021/01/15 06:53:15;;;;;;;1.58;0.90;;;20.00;30.00;;;;;;4992940;28;20022;-45
2021/01/15 06:55:48;;;;;;;1.45;1.00;;;20.00;30.20;;;;;;4994776;28;20042;-43
2021/01/15 06:58:42;;;;;;;2.65;1.13;;;20.00;30.20;;;;;;4994060;28;20418;-45
2021/01/15 07:01:25;;;;;;;1.42;1.00;;;20.00;30.10;;;;;;4993635;28;20041;-46
2021/01/15 07:04:14;;;;;;;1.20;0.90;;;20.00;30.20;;;;;;4993828;28;20097;-43
2021/01/15 07:06:56;;;;;;;2.10;1.23;;;20.00;30.20;;;;;;4994667;28;20034;-43
2021/01/15 07:09:27;;;;;;;1.95;1.48;;;19.90;30.20;;;;;;4994337;28;20026;-46
2021/01/15 07:11:55;;;;;;;1.45;1.20;;;20.00;30.20;;;;;;4993972;28;20329;-44
2021/01/15 07:14:26;;;;;;;1.60;1.17;;;20.00;30.30;;;;;;4994010;28;20373;-46
2021/01/15 07:16:57;;;;;;;1.80;1.23;;;20.00;30.40;;;;;;4997409;28;20100;-48
2021/01/15 07:19:35;;;;;;;1.52;1.15;;;19.90;30.30;;;;;;4997730;28;20042;-46
2021/01/15 07:22:01;;;;;;;1.33;0.95;;;20.00;30.30;;;;;;4998196;28;20118;-44
2021/01/15 07:24:33;;;;;;;1.25;1.15;;;19.90;30.30;;;;;;4996914;28;20129;-46
2021/01/15 07:27:00;;;;;;;1.50;1.17;;;19.90;30.30;;;;;;4997612;28;20362;-43
2021/01/15 07:29:27;;;;;;;1.25;1.10;;;19.90;30.30;;;;;;4997255;28;20038;-44
2021/01/15 07:32:08;;;;;;;2.17;1.50;;;19.90;30.30;;;;;;4997205;28;20038;-46
2021/01/15 07:34:37;;;;;;;2.22;1.40;;;19.90;30.20;;;;;;4996522;28;20038;-44
2021/01/15 07:37:35;;;;;;;1.83;1.30;;;19.90;30.20;;;;;;4997476;28;20109;-45
2021/01/15 07:40:20;;;;;;;1.52;1.30;;;19.90;30.10;;;;;;4964819;28;20053;-45
2021/01/15 07:42:50;;;;;;;2.15;1.58;;;19.90;30.10;;;;;;4996987;28;20124;-50
2021/01/15 07:45:27;;;;;;;2.95;1.10;;;19.90;30.00;;;;;;4991474;28;20035;-49
2021/01/15 07:48:05;;;;;;;1.90;1.30;;;20.00;30.30;;;;;;4992032;28;20034;-51
2021/01/15 07:50:32;;;;;;;2.47;1.10;;;20.00;30.60;;;;;;4995207;28;20030;-44
2021/01/15 07:53:26;;;;;;;1.92;1.30;;;20.10;30.80;;;;;;4995949;28;20136;-47
2021/01/15 07:55:56;;;;;;;1.80;1.15;;;20.10;30.80;;;;;;4995042;28;20116;-46
2021/01/15 07:58:24;;;;;;;2.40;1.20;;;20.20;31.00;;;;;;4993749;28;20388;-51
2021/01/15 08:00:51;;;;;;;1.73;1.17;;;20.30;30.90;;;;;;4996377;28;20026;-47
2021/01/15 08:03:17;;;;;;;2.67;1.08;;;20.30;30.70;;;;;;4977102;28;20034;-47
2021/01/15 08:05:44;;;;;;;1.63;1.17;;;20.40;30.70;;;;;;4994496;28;20030;-45
2021/01/15 08:08:12;;;;;;;1.80;1.10;;;20.40;30.60;;;;;;4995360;28;20057;-47
2021/01/15 08:10:48;;;;;;;1.63;1.20;;;20.50;30.60;;;;;;4996731;28;20105;-49
2021/01/15 08:13:27;;;;;;;2.90;0.90;;;20.60;30.60;;;;;;4992928;28;20388;-46
2021/01/15 08:15:56;;;;;;;1.20;1.10;;;20.70;30.50;;;;;;4995176;28;20100;-49
2021/01/15 08:18:24;;;;;;;1.85;1.00;;;20.80;30.40;;;;;;4994737;28;20358;-46
2021/01/15 08:20:52;;;;;;;2.90;1.05;;;20.90;30.30;;;;;;4995197;28;20030;-50
2021/01/15 08:23:23;;;;;;;2.80;1.00;;;21.00;30.30;;;;;;4992013;28;20145;-46
2021/01/15 08:25:51;;;;;;;3.22;0.90;;;21.10;30.20;;;;;;4994262;28;20116;-45
2021/01/15 08:28:17;;;;;;;1.52;1.00;;;21.20;30.10;;;;;;4994586;28;20034;-46
2021/01/15 08:31:12;;;;;;;1.35;0.90;;;21.30;30.00;;;;;;4995400;28;20027;-48
2021/01/15 08:33:38;;;;;;;1.40;0.95;;;21.40;30.00;;;;;;4983968;28;20174;-45
2021/01/15 08:36:04;;;;;;;1.60;0.93;;;21.50;30.00;;;;;;4994665;28;20077;-46
2021/01/15 08:38:34;;;;;;;1.35;1.05;;;21.60;29.90;;;;;;4994234;28;20151;-48
2021/01/15 08:41:12;;;;;;;1.20;1.08;;;21.70;29.90;;;;;;4994547;28;20038;-47
2021/01/15 08:43:38;;;;;;;1.38;1.02;;;21.90;29.90;;;;;;4993879;28;20373;-45
2021/01/15 08:46:04;;;;;;;1.58;1.15;;;21.90;29.80;;;;;;4980506;28;20045;-46
2021/01/15 08:48:31;;;;;;;1.05;0.95;;;22.00;29.70;;;;;;4994596;28;20018;-45
2021/01/15 08:51:07;;;;;;;1.20;0.90;;;22.10;29.60;;;;;;4994562;28;20033;-45
2021/01/15 08:53:43;;;;;;;1.65;1.15;;;22.20;29.50;;;;;;4976902;28;20041;-43
2021/01/15 08:56:14;;;;;;;1.73;1.20;;;22.30;29.50;;;;;;4992371;28;20034;-43
2021/01/15 08:58:49;;;;;;;1.20;0.95;;;22.40;29.30;;;;;;4996034;28;20060;-42
2021/01/15 09:01:31;;;;;;;3.10;1.10;;;22.50;29.30;;;;;;4977124;28;20045;-52
2021/01/15 09:04:02;;;;;;;1.15;0.98;;;22.60;29.10;;;;;;4991544;28;20441;-43
2021/01/15 09:06:28;;;;;;;1.45;1.17;;;22.70;29.00;;;;;;4993948;28;20030;-46
2021/01/15 09:08:57;;;;;;;2.95;1.38;;;22.80;28.90;;;;;;4994237;28;20524;-45
2021/01/15 09:11:28;;;;;;;2.05;1.27;;;22.90;28.90;;;;;;4991203;28;20056;-45
2021/01/15 09:13:55;;;;;;;1.60;1.10;;;22.90;28.80;;;;;;4991252;28;20473;-47
2021/01/15 09:16:22;;;;;;;1.73;1.17;;;23.00;28.70;;;;;;4994519;28;20556;-44
2021/01/15 09:18:52;;;;;;;1.13;1.02;;;23.10;28.70;;;;;;4993686;28;20026;-45
2021/01/15 09:21:18;;;;;;;1.90;1.13;;;23.10;28.60;;;;;;4994384;28;20358;-46
2021/01/15 09:23:44;;;;;;;1.27;1.10;;;23.20;28.60;;;;;;4993178;28;20450;-47
2021/01/15 09:26:15;;;;;;;1.08;0.98;;;23.20;28.50;;;;;;4993670;28;20062;-50
2021/01/15 09:28:41;;;;;;;1.38;1.05;;;23.30;28.50;;;;;;4995509;28;20022;-45
2021/01/15 09:31:07;;;;;;;1.42;1.17;;;23.30;28.40;;;;;;4993954;28;20048;-47
2021/01/15 09:33:32;;;;;;;1.80;1.00;;;23.30;28.40;;;;;;4994983;28;20031;-45
2021/01/15 09:35:58;;;;;;;1.88;1.20;;;23.40;28.40;;;;;;4993643;28;20069;-45
2021/01/15 09:38:24;;;;;;;1.00;0.82;;;23.40;28.30;;;;;;4992407;28;20034;-46
2021/01/15 09:40:50;;;;;;;1.52;1.08;;;23.50;28.30;;;;;;4995703;28;20034;-45
2021/01/15 09:43:18;;;;;;;1.85;1.40;;;23.50;28.20;;;;;;4993416;28;20026;-47
2021/01/15 09:45:45;;;;;;;1.55;1.10;;;23.50;28.20;;;;;;4993414;28;20026;-53
2021/01/15 09:48:11;;;;;;;3.53;1.25;;;23.60;28.20;;;;;;4992638;28;20034;-46
2021/01/15 09:50:37;;;;;;;1.92;1.20;;;23.60;28.30;;;;;;4993216;28;20037;-49
2021/01/15 09:53:03;;;;;;;1.85;1.30;;;23.60;28.50;;;;;;4993025;28;20022;-44
2021/01/15 09:55:28;;;;;;;1.63;1.00;;;23.60;28.60;;;;;;4993310;28;20042;-48
2021/01/15 09:57:54;;;;;;;2.50;1.27;;;23.70;28.80;;;;;;4993316;28;20030;-44
2021/01/15 10:00:20;;;;;;;1.67;1.10;;;23.70;29.40;;;;;;4993083;28;20332;-45
2021/01/15 10:02:46;;;;;;;1.58;1.20;;;23.70;30.00;;;;;;4993765;28;20076;-44
2021/01/15 10:05:12;;;;;;;1.77;1.30;;;23.70;30.70;;;;;;4993190;28;20054;-45
2021/01/15 10:07:38;;;;;;;1.63;1.17;;;23.70;31.60;;;;;;4993357;28;20041;-45
2021/01/15 10:10:04;;;;;;;1.27;1.17;;;23.70;32.40;;;;;;4992647;28;20018;-46
2021/01/15 10:12:30;;;;;;;1.75;1.20;;;23.80;33.30;;;;;;4975414;28;20026;-43
2021/01/15 10:14:56;;;;;;;2.33;1.13;;;23.80;34.00;;;;;;4993516;28;20492;-48
2021/01/15 10:17:21;;;;;;;1.63;1.15;;;23.80;34.50;;;;;;4992854;28;20030;-43
2021/01/15 10:19:47;;;;;;;1.83;1.02;;;23.80;35.00;;;;;;4992523;28;20034;-45
2021/01/15 10:22:13;;;;;;;1.70;1.00;;;23.90;35.50;;;;;;4992771;28;20430;-44
2021/01/15 10:24:38;;;;;;;1.95;1.25;;;23.90;35.70;;;;;;4992773;28;20042;-44
2021/01/15 10:27:04;;;;;;;1.83;1.13;;;23.90;35.80;;;;;;4992962;28;20030;-45
2021/01/15 10:29:30;;;;;;;1.40;1.30;;;23.90;35.80;;;;;;4975578;28;20442;-47
2021/01/15 10:31:56;;;;;;;1.13;1.02;;;23.90;35.80;;;;;;4992468;28;20037;-48
2021/01/15 10:34:23;;;;;;;1.65;1.20;;;23.90;35.80;;;;;;4992958;28;20432;-44
2021/01/15 10:36:50;;;;;;;1.50;1.40;;;24.00;35.20;;;;;;4975382;28;20070;-47
2021/01/15 10:39:17;;;;;;;1.67;1.40;;;24.00;34.40;;;;;;4993028;28;20097;-45
2021/01/15 10:41:45;;;;;;;2.03;1.48;;;24.00;33.60;;;;;;4992186;28;20030;-44
2021/01/15 10:44:12;;;;;;;1.52;1.40;;;24.00;32.90;;;;;;4993194;28;20445;-45
2021/01/15 10:46:40;;;;;;;1.98;1.42;;;24.00;32.30;;;;;;4993751;28;20038;-51
2021/01/15 10:49:16;;;;;;;1.83;1.20;;;24.00;32.00;;;;;;4992003;28;20102;-49
2021/01/15 10:51:46;;;;;;;1.88;1.40;;;24.00;31.60;;;;;;4994745;28;20038;-48
2021/01/15 10:54:12;;;;;;;2.45;1.55;;;24.00;31.40;;;;;;4997020;28;20079;-45
2021/01/15 10:56:40;;;;;;;3.53;1.45;;;24.00;31.20;;;;;;4995925;28;20152;-45
2021/01/15 10:59:06;;;;;;;2.45;1.30;;;24.00;31.00;;;;;;4994430;28;20054;-46
2021/01/15 11:01:42;;;;;;;1.98;1.38;;;24.00;31.00;;;;;;4996765;28;20039;-51
2021/01/15 11:04:10;;;;;;;2.63;1.63;;;24.00;30.80;;;;;;4995203;28;20033;-45
2021/01/15 11:06:37;;;;;;;1.98;1.60;;;24.00;30.80;;;;;;4994884;28;20054;-47
2021/01/15 11:09:07;;;;;;;1.58;1.25;;;24.00;30.80;;;;;;4995572;28;20041;-49
2021/01/15 11:11:33;;;;;;;1.98;1.45;;;24.00;30.90;;;;;;4995980;28;20038;-43
2021/01/15 11:14:00;;;;;;;1.70;1.38;;;24.00;31.10;;;;;;4996325;28;20100;-48
2021/01/15 11:16:25;;;;;;;1.88;1.63;;;24.00;31.20;;;;;;4996460;28;20085;-46
2021/01/15 11:18:52;;;;;;;2.38;1.75;;;24.00;31.30;;;;;;4995876;28;21439;-45
2021/01/15 11:21:25;;;;;;;1.90;1.55;;;24.00;31.50;;;;;;4996250;28;20121;-45
2021/01/15 11:23:52;;;;;;;2.90;1.50;;;24.00;31.60;;;;;;4995230;28;20042;-45
2021/01/15 11:26:25;;;;;;;2.33;1.80;;;24.00;31.70;;;;;;4996191;28;20052;-44
2021/01/15 11:28:55;;;;;;;2.00;1.58;;;24.00;31.70;;;;;;4995436;28;20037;-47
2021/01/15 11:31:22;;;;;;;2.08;1.60;;;24.00;31.70;;;;;;4996149;28;20058;-44
2021/01/15 11:33:49;;;;;;;1.85;1.48;;;24.00;31.70;;;;;;4995965;28;20035;-43
2021/01/15 11:36:15;;;;;;;1.60;1.30;;;24.00;31.70;;;;;;4995880;28;20434;-47
2021/01/15 11:38:41;;;;;;;1.70;1.55;;;24.00;31.60;;;;;;4993413;28;20343;-45
2021/01/15 11:41:08;;;;;;;1.67;1.42;;;24.00;31.60;;;;;;4995307;28;20035;-43
2021/01/15 11:43:37;;;;;;;1.67;1.38;;;24.00;31.50;;;;;;4995269;28;20438;-45
2021/01/15 11:46:03;;;;;;;2.45;1.77;;;24.10;31.40;;;;;;4996018;28;20052;-43
2021/01/15 11:48:30;;;;;;;2.03;1.55;;;24.00;31.30;;;;;;4995413;28;20034;-42
2021/01/15 11:50:56;;;;;;;1.98;1.65;;;24.00;31.10;;;;;;4996338;28;20028;-42
2021/01/15 11:53:23;;;;;;;2.22;1.73;;;24.00;31.00;;;;;;4996452;28;20041;-44
2021/01/15 11:55:51;;;;;;;1.98;1.67;;;24.10;30.90;;;;;;4994461;28;20089;-43
2021/01/15 11:58:17;;;;;;;2.20;1.30;;;24.10;30.70;;;;;;4994157;28;20035;-44
2021/01/15 12:00:43;;;;;;;2.28;1.55;;;24.10;30.50;;;;;;4995235;28;20113;-48
2021/01/15 12:03:09;;;;;;;1.60;1.40;;;24.10;30.30;;;;;;4993706;28;20022;-50
2021/01/15 12:05:42;;;;;;;2.58;1.60;;;24.10;30.20;;;;;;4979697;28;20073;-45
2021/01/15 12:08:09;;;;;;;1.92;1.40;;;24.10;30.80;;;;;;4979772;28;20096;-44
2021/01/15 12:10:35;;;;;;;3.03;1.60;;;24.10;30.50;;;;;;4996465;28;20049;-50
2021/01/15 12:13:01;;;;;;;3.63;1.63;;;24.10;30.70;;;;;;5014978;28;20429;-50
2021/01/15 12:15:27;;;;;;;1.80;1.50;;;24.20;30.90;;;;;;4993586;28;20038;-49
2021/01/15 12:17:53;;;;;;;1.75;1.30;;;24.20;31.00;;;;;;4975542;28;20349;-49
2021/01/15 12:20:19;;;;;;;2.35;1.63;;;24.20;31.00;;;;;;4995950;28;20031;-47
2021/01/15 12:22:46;;;;;;;3.50;1.58;;;24.30;31.10;;;;;;4994923;28;20460;-45
2021/01/15 12:25:12;;;;;;;1.55;1.40;;;24.30;31.00;;;;;;4993132;28;20486;-48
2021/01/15 12:27:38;;;;;;;2.28;1.65;;;24.30;30.90;;;;;;4993694;28;20033;-49
2021/01/15 12:30:05;;;;;;;1.90;1.60;;;24.30;30.80;;;;;;4961170;28;20499;-45
2021/01/15 12:32:31;;;;;;;1.40;1.20;;;24.30;30.70;;;;;;4991960;28;20374;-48
2021/01/15 12:34:57;;;;;;;3.90;1.67;;;24.30;30.60;;;;;;4993028;28;20034;-47
2021/01/15 12:37:24;;;;;;;2.42;1.50;;;24.30;30.50;;;;;;4994421;28;20030;-47
2021/01/15 12:39:50;;;;;;;4.93;1.70;;;24.30;30.40;;;;;;4993162;28;21666;-45
2021/01/15 12:42:16;;;;;;;4.82;1.88;;;24.30;30.30;;;;;;4994380;28;20038;-52
2021/01/15 12:44:42;;;;;;;1.80;1.60;;;24.30;30.30;;;;;;4992678;28;20026;-46
2021/01/15 12:47:08;;;;;;;1.48;1.38;;;24.30;30.20;;;;;;4988399;28;20057;-46
2021/01/15 12:49:34;;;;;;;1.70;1.50;;;24.40;30.20;;;;;;4994580;28;20029;-46
2021/01/15 12:52:00;;;;;;;2.13;1.55;;;24.40;30.40;;;;;;4992380;28;20038;-56
2021/01/15 12:54:26;;;;;;;2.10;1.52;;;24.40;30.50;;;;;;4994703;28;20046;-47
2021/01/15 12:56:52;;;;;;;4.05;1.75;;;24.40;30.70;;;;;;4992821;28;20084;-48
2021/01/15 12:59:18;;;;;;;2.08;1.52;;;24.40;30.80;;;;;;4992545;28;20430;-45